Time;durP1;ratioP1;P1;durP2;ratioP2;P2;SDS_P1;SDS_P2;PMS_P1;PMS_P2;Temp;Humidity;BMP_temperature;BMP_pressure;BME280_temperature;BME280_humidity;BME280_pressure;Samples;Min_cycle;Max_cycle;Signal;HPM_P1;HPM_P2
2023/02/12 00:00:39;;;;;;;22.00;14.00;;;;;;;6.21;100.00;101771.44;186563;1234;43840;-90
2023/02/12 00:05:03;;;;;;;17.60;12.40;;;;;;;6.32;100.00;101781.02;186594;1233;60194;-90
2023/02/12 00:09:06;;;;;;;20.80;13.80;;;;;;;6.40;100.00;101781.95;186717;1233;43655;-90
2023/02/12 00:13:09;;;;;;;25.80;18.20;;;;;;;6.56;100.00;101785.04;186500;1233;43922;-91
2023/02/12 00:17:12;;;;;;;21.70;16.60;;;;;;;6.67;100.00;101794.10;186496;1233;43646;-90
2023/02/12 00:21:16;;;;;;;22.80;17.80;;;;;;;6.76;100.00;101794.05;186466;1233;43221;-90
2023/02/12 00:25:19;;;;;;;24.50;17.30;;;;;;;6.79;100.00;101798.72;186470;1232;57436;-90
2023/02/12 00:29:22;;;;;;;19.70;15.70;;;;;;;6.82;100.00;101806.33;186563;1232;43818;-89
2023/02/12 00:33:25;;;;;;;25.90;17.00;;;;;;;6.72;100.00;101819.27;186395;1235;44081;-89
2023/02/12 00:37:27;;;;;;;46.30;19.30;;;;;;;6.72;100.00;101816.61;186567;1234;44283;-89
2023/02/12 00:41:30;;;;;;;21.20;14.80;;;;;;;6.54;100.00;101822.46;186351;1232;43661;-87
2023/02/12 00:45:32;;;;;;;24.30;16.20;;;;;;;6.44;100.00;101830.08;186438;1236;56941;-87
2023/02/12 00:49:34;;;;;;;23.70;15.50;;;;;;;6.28;100.00;101826.27;186728;1233;43639;-87
2023/02/12 00:53:36;;;;;;;21.70;16.00;;;;;;;6.21;100.00;101825.14;186506;1233;44002;-88
2023/02/12 00:57:38;;;;;;;21.70;14.00;;;;;;;6.17;100.00;101825.13;186535;1233;43984;-88
2023/02/12 01:01:40;;;;;;;21.40;15.70;;;;;;;6.10;100.00;101828.73;186507;1232;43873;-88
2023/02/12 01:05:42;;;;;;;22.30;15.10;;;;;;;6.11;100.00;101828.88;186528;1237;59421;-88
2023/02/12 01:09:44;;;;;;;22.90;17.40;;;;;;;6.06;100.00;101832.41;186758;1235;44117;-88
2023/02/12 01:13:46;;;;;;;24.80;15.30;;;;;;;6.12;100.00;101833.42;186346;1234;43946;-88
2023/02/12 01:17:51;;;;;;;23.50;16.90;;;;;;;6.09;100.00;101838.47;186540;1232;43631;-88
2023/02/12 01:21:53;;;;;;;22.90;14.90;;;;;;;6.05;100.00;101834.20;186496;1233;44012;-88
2023/02/12 01:25:57;;;;;;;24.20;14.80;;;;;;;6.01;100.00;101841.55;186507;1234;60984;-88
2023/02/12 01:29:59;;;;;;;20.20;14.90;;;;;;;5.97;100.00;101845.91;186484;1234;44016;-89
2023/02/12 01:34:02;;;;;;;29.10;19.80;;;;;;;6.06;100.00;101844.03;186541;1233;43761;-88
2023/02/12 01:38:04;;;;;;;27.40;16.30;;;;;;;6.02;100.00;101852.83;186480;1234;44088;-88
2023/02/12 01:42:06;;;;;;;29.90;17.60;;;;;;;6.03;100.00;101863.36;186279;1233;43647;-89
2023/02/12 01:46:12;;;;;;;24.20;15.10;;;;;;;5.99;100.00;101863.84;186524;1235;59432;-89
2023/02/12 01:50:18;;;;;;;21.90;14.90;;;;;;;5.93;100.00;101859.29;186509;1233;43781;-89
2023/02/12 01:54:24;;;;;;;22.30;14.40;;;;;;;5.84;100.00;101866.83;186434;1233;43749;-89
2023/02/12 01:58:30;;;;;;;25.60;18.80;;;;;;;5.85;100.00;101873.64;186552;1233;43958;-90
2023/02/12 02:02:33;;;;;;;21.70;14.90;;;;;;;5.91;100.00;101876.98;186580;1232;43914;-89
2023/02/12 02:06:57;;;;;;;31.00;18.20;;;;;;;6.00;100.00;101886.00;186478;1233;58468;-89
2023/02/12 02:10:59;;;;;;;21.00;15.50;;;;;;;5.95;100.00;101890.20;186536;1234;44022;-89
2023/02/12 02:15:03;;;;;;;29.60;17.80;;;;;;;5.95;100.00;101891.45;186418;1234;43891;-89
2023/02/12 02:19:25;;;;;;;26.60;17.50;;;;;;;5.94;100.00;101892.72;186629;1233;44030;-90
2023/02/12 02:23:33;;;;;;;26.30;16.60;;;;;;;5.93;100.00;101897.67;186381;1233;44077;-89
2023/02/12 02:27:39;;;;;;;24.20;14.50;;;;;;;5.88;100.00;101899.27;186541;1233;59147;-90
2023/02/12 02:31:46;;;;;;;24.70;15.40;;;;;;;5.84;100.00;101895.85;186575;1234;43787;-90
2023/02/12 02:36:21;;;;;;;19.60;10.80;;;;;;;5.85;100.00;101899.55;186434;1234;44195;-90
2023/02/12 02:40:35;;;;;;;23.50;15.80;;;;;;;5.87;100.00;101904.56;186564;1234;43940;-88
2023/02/12 02:49:43;;;;;;;19.40;14.40;;;;;;;5.84;100.00;101914.73;186531;1234;60435;-90
2023/02/12 03:03:10;;;;;;;22.60;14.70;;;;;;;5.73;100.00;101925.84;186432;1234;44237;-90
2023/02/12 03:07:26;;;;;;;29.20;16.10;;;;;;;5.68;100.00;101925.48;186317;1235;43806;-90
2023/02/12 03:11:32;;;;;;;24.70;15.70;;;;;;;5.73;100.00;101926.01;186381;1234;58017;-90
2023/02/12 03:15:37;;;;;;;24.80;15.00;;;;;;;5.77;100.00;101929.40;186299;1234;43823;-90
2023/02/12 03:19:57;;;;;;;24.60;15.70;;;;;;;5.76;100.00;101929.95;186553;1234;43728;-91
2023/02/12 03:24:27;;;;;;;19.70;11.40;;;;;;;5.70;100.00;101938.27;186536;1235;44018;-90
2023/02/12 03:33:21;;;;;;;21.50;17.10;;;;;;;5.63;100.00;101945.89;186588;1235;58670;-89
2023/02/12 03:37:32;;;;;;;24.70;18.10;;;;;;;5.60;100.00;101946.34;186100;1234;43878;-87
2023/02/12 03:41:46;;;;;;;29.60;18.10;;;;;;;5.62;100.00;101957.02;185700;1234;429026;-88
2023/02/12 03:45:50;;;;;;;26.00;18.20;;;;;;;5.64;100.00;101960.85;186093;1234;43964;-88
2023/02/12 03:49:56;;;;;;;22.50;16.40;;;;;;;5.68;100.00;101971.27;186211;1235;43675;-88
2023/02/12 03:54:01;;;;;;;28.00;16.50;;;;;;;5.75;100.00;101973.32;186092;1235;58403;-88
2023/02/12 03:58:07;;;;;;;30.60;16.90;;;;;;;5.77;100.00;101975.52;186329;1235;43721;-89
2023/02/12 04:02:09;;;;;;;25.40;18.10;;;;;;;5.77;100.00;101982.90;186059;1235;44054;-88
2023/02/12 04:06:24;;;;;;;25.20;16.10;;;;;;;5.84;100.00;101989.90;186262;1235;43835;-89
2023/02/12 04:10:34;;;;;;;24.10;16.80;;;;;;;5.92;100.00;101995.63;186128;1235;43684;-89
2023/02/12 04:14:54;;;;;;;21.30;14.30;;;;;;;6.08;100.00;101998.97;186144;1235;59254;-89
2023/02/12 04:18:57;;;;;;;28.70;17.00;;;;;;;6.21;100.00;102003.96;186192;1235;43625;-90
2023/02/12 04:23:36;;;;;;;18.40;12.70;;;;;;;6.34;100.00;102012.84;186207;1235;43682;-90
2023/02/12 04:27:51;;;;;;;24.60;17.00;;;;;;;6.41;100.00;102022.27;186238;1234;43940;-90
2023/02/12 04:32:00;;;;;;;20.30;14.10;;;;;;;6.47;100.00;102028.77;186091;1235;44025;-89
2023/02/12 04:36:12;;;;;;;24.90;16.80;;;;;;;6.50;100.00;102026.88;186158;1235;58956;-90
2023/02/12 04:40:18;;;;;;;23.10;13.50;;;;;;;6.49;100.00;102030.65;186037;1234;43898;-89
2023/02/12 04:44:26;;;;;;;21.10;14.60;;;;;;;6.53;100.00;102032.81;185937;1235;44073;-88
2023/02/12 04:48:27;;;;;;;18.90;12.20;;;;;;;6.36;100.00;102028.80;186019;1236;44159;-89
2023/02/12 04:52:29;;;;;;;24.30;14.90;;;;;;;6.11;100.00;102032.66;186304;1235;43782;-88
2023/02/12 04:56:31;;;;;;;18.30;14.10;;;;;;;5.94;100.00;102039.94;186197;1235;58001;-89
2023/02/12 05:00:33;;;;;;;19.30;14.50;;;;;;;5.83;100.00;102044.31;186053;1235;43725;-89
2023/02/12 05:04:35;;;;;;;19.80;13.10;;;;;;;5.69;100.00;102045.14;186097;1234;44149;-89
2023/02/12 05:08:37;;;;;;;24.10;16.00;;;;;;;5.64;100.00;102048.49;186131;1234;43990;-88
2023/02/12 05:12:39;;;;;;;23.20;13.80;;;;;;;5.61;100.00;102050.34;186123;1235;43730;-88
2023/02/12 05:16:41;;;;;;;24.40;15.90;;;;;;;5.59;100.00;102053.40;186196;1238;58766;-88
2023/02/12 05:20:43;;;;;;;23.10;14.60;;;;;;;5.60;100.00;102058.30;186123;1235;43895;-89
2023/02/12 05:24:44;;;;;;;25.10;17.10;;;;;;;5.62;100.00;102061.04;186050;1235;43697;-89
2023/02/12 05:28:47;;;;;;;25.80;16.00;;;;;;;5.74;100.00;102056.96;186157;1234;44213;-89
2023/02/12 05:32:49;;;;;;;20.50;16.00;;;;;;;5.85;100.00;102062.92;186043;1235;43756;-88
2023/02/12 05:36:50;;;;;;;22.80;15.30;;;;;;;5.96;100.00;102064.52;186134;1234;57943;-89
2023/02/12 05:40:52;;;;;;;26.30;15.80;;;;;;;6.01;100.00;102071.75;186047;1235;43669;-89
2023/02/12 05:44:54;;;;;;;26.10;15.20;;;;;;;6.01;100.00;102071.58;186116;1235;44207;-90
2023/02/12 05:48:57;;;;;;;28.00;16.20;;;;;;;6.02;100.00;102072.61;186314;1234;43708;-89
2023/02/12 05:53:00;;;;;;;26.00;17.20;;;;;;;6.08;100.00;102078.40;186238;1235;43935;-90
2023/02/12 05:57:05;;;;;;;21.50;15.70;;;;;;;6.08;100.00;102082.10;186337;1235;59196;-90
2023/02/12 06:15:41;;;;;;;24.70;16.00;;;;;;;6.11;100.00;102110.52;186529;1234;43983;-90
2023/02/12 06:20:03;;;;;;;25.70;16.30;;;;;;;6.19;100.00;102119.25;186626;1233;59186;-89
2023/02/12 06:24:19;;;;;;;24.50;16.00;;;;;;;6.18;100.00;102130.39;186664;1234;43947;-91
2023/02/12 06:28:23;;;;;;;22.10;14.20;;;;;;;6.18;100.00;102143.78;186516;1234;43623;-91
2023/02/12 06:32:28;;;;;;;20.50;13.90;;;;;;;6.06;100.00;102150.34;186530;1233;43965;-92
2023/02/12 06:36:35;;;;;;;25.70;14.20;;;;;;;6.07;100.00;102158.21;187218;1234;43775;-91
2023/02/12 06:40:44;;;;;;;24.40;15.80;;;;;;;6.18;100.00;102160.32;186834;1234;78616;-76
2023/02/12 06:45:04;;;;;;;26.50;13.30;;;;;;;6.26;100.00;102170.11;186828;1234;43613;-75
2023/02/12 06:49:05;;;;;;;24.00;15.40;;;;;;;6.29;100.00;102177.77;186890;1234;42986;-74
2023/02/12 06:53:07;;;;;;;18.60;13.70;;;;;;;6.24;100.00;102185.15;187149;1234;42928;-75
2023/02/12 06:57:08;;;;;;;20.20;13.40;;;;;;;6.33;100.00;102183.64;186929;1234;42993;-75
2023/02/12 07:01:26;;;;;;;18.20;12.20;;;;;;;6.37;100.00;102192.11;186927;1234;57803;-75
2023/02/12 07:05:27;;;;;;;18.80;14.10;;;;;;;6.35;100.00;102196.59;186847;1234;42940;-73
2023/02/12 07:09:31;;;;;;;25.00;14.80;;;;;;;6.44;100.00;102200.51;186859;1234;42913;-74
2023/02/12 07:13:33;;;;;;;18.80;13.60;;;;;;;6.56;100.00;102202.79;186996;1234;43010;-76
2023/02/12 07:17:37;;;;;;;20.80;15.70;;;;;;;6.46;100.00;102203.98;186819;1234;43607;-75
2023/02/12 07:21:39;;;;;;;29.20;16.30;;;;;;;6.34;100.00;102202.44;186809;1234;57921;-76
2023/02/12 07:26:00;;;;;;;30.20;16.60;;;;;;;6.35;100.00;102209.30;187119;1234;42954;-75
2023/02/12 07:30:05;;;;;;;22.30;16.10;;;;;;;6.42;100.00;102214.33;186740;1234;77976;-91
2023/02/12 07:34:26;;;;;;;30.10;16.20;;;;;;;6.55;100.00;102218.32;186507;1235;43765;-91
2023/02/12 07:38:34;;;;;;;25.70;14.20;;;;;;;6.57;100.00;102223.36;186808;1234;43799;-91
2023/02/12 07:47:53;;;;;;;28.90;16.60;;;;;;;6.51;100.00;102236.98;187234;1233;80976;-71
2023/02/12 08:01:20;;;;;;;26.80;16.50;;;;;;;6.80;100.00;102248.70;186546;1235;43981;-91
2023/02/12 08:05:22;;;;;;;30.20;18.10;;;;;;;6.94;100.00;102249.63;185918;1234;59351;-87
2023/02/12 08:09:29;;;;;;;26.40;16.40;;;;;;;7.17;100.00;102251.10;185944;1235;43631;-90
2023/02/12 08:13:33;;;;;;;28.70;16.90;;;;;;;7.49;100.00;102258.23;186229;1235;44163;-90
2023/02/12 08:17:36;;;;;;;33.50;18.10;;;;;;;7.73;100.00;102257.19;186170;1235;43760;-90
2023/02/12 08:26:16;;;;;;;29.00;16.90;;;;;;;8.05;100.00;102259.98;186467;1235;59000;-89
2023/02/12 08:30:18;;;;;;;32.80;16.80;;;;;;;8.11;100.00;102260.31;186061;1235;43750;-89
2023/02/12 08:34:22;;;;;;;27.90;17.00;;;;;;;8.12;100.00;102264.85;185836;1237;44264;-89
2023/02/12 08:38:24;;;;;;;29.60;17.00;;;;;;;8.15;100.00;102264.38;185996;1235;43992;-88
2023/02/12 08:42:26;;;;;;;29.00;18.60;;;;;;;8.19;100.00;102264.91;185994;1235;44090;-90
2023/02/12 08:46:31;;;;;;;27.20;16.80;;;;;;;8.20;100.00;102262.61;186074;1235;60528;-89
2023/02/12 08:50:34;;;;;;;27.00;15.90;;;;;;;8.30;100.00;102266.96;185898;1237;43774;-89
2023/02/12 08:54:36;;;;;;;27.10;16.00;;;;;;;8.46;100.00;102267.74;185990;1237;43939;-89
2023/02/12 08:58:39;;;;;;;26.00;16.30;;;;;;;8.64;100.00;102276.40;186254;1236;43985;-89
2023/02/12 09:02:41;;;;;;;30.30;16.80;;;;;;;8.79;100.00;102284.96;185973;1235;43645;-89
2023/02/12 09:06:45;;;;;;;48.00;14.10;;;;;;;8.95;100.00;102288.36;186024;1235;59217;-89
2023/02/12 09:10:47;;;;;;;26.90;15.70;;;;;;;8.86;100.00;102296.52;185860;1236;43768;-89
2023/02/12 09:14:50;;;;;;;26.00;15.70;;;;;;;8.86;100.00;102299.39;185977;1239;43701;-89
2023/02/12 09:18:52;;;;;;;26.80;14.40;;;;;;;8.99;100.00;102305.35;185977;1236;44003;-89
2023/02/12 09:22:54;;;;;;;19.50;12.80;;;;;;;8.96;100.00;102309.02;185935;1237;43666;-89
2023/02/12 09:26:56;;;;;;;24.10;15.00;;;;;;;8.91;100.00;102312.60;186044;1237;59424;-89
2023/02/12 09:31:03;;;;;;;26.20;15.80;;;;;;;8.88;100.00;102318.02;185911;1235;43699;-89
2023/02/12 09:35:05;;;;;;;24.20;14.90;;;;;;;9.10;100.00;102323.84;185960;1237;44044;-88
2023/02/12 09:39:07;;;;;;;36.50;15.20;;;;;;;9.29;100.00;102323.53;185876;1237;43644;-88
2023/02/12 09:43:52;;;;;;;25.30;12.60;;;;;;;9.54;100.00;102319.98;185822;1235;44042;-89
2023/02/12 09:48:14;;;;;;;27.80;13.70;;;;;;;9.82;100.00;102319.23;186250;1235;57784;-88
2023/02/12 09:52:20;;;;;;;40.10;16.90;;;;;;;9.93;100.00;102324.23;184949;1244;43995;-89
2023/02/12 09:56:25;;;;;;;28.40;14.50;;;;;;;9.96;99.90;102322.89;184889;1244;43742;-88
2023/02/12 10:00:30;;;;;;;20.20;14.00;;;;;;;9.87;98.52;102331.24;184845;1244;43982;-88
2023/02/12 10:04:32;;;;;;;24.10;14.50;;;;;;;9.81;99.66;102333.33;184717;1244;44049;-88
2023/02/12 10:09:09;;;;;;;27.00;13.60;;;;;;;9.80;99.91;102333.86;184430;1244;59799;-90
2023/02/12 10:13:29;;;;;;;23.30;12.80;;;;;;;9.94;99.91;102334.83;186034;1234;43763;-88
2023/02/12 10:17:44;;;;;;;28.90;14.90;;;;;;;10.12;99.32;102321.06;186109;1235;43672;-86
2023/02/12 10:21:57;;;;;;;26.90;14.40;;;;;;;10.15;97.70;102314.89;186054;1234;44053;-85
2023/02/12 10:26:17;;;;;;;25.70;15.90;;;;;;;10.25;98.28;102312.98;186044;1234;43709;-85
2023/02/12 10:30:24;;;;;;;28.10;15.50;;;;;;;10.35;96.47;102316.08;185811;1234;57858;-82
2023/02/12 10:34:34;;;;;;;22.20;13.00;;;;;;;10.32;95.26;102309.46;185898;1234;43777;-85
2023/02/12 10:38:41;;;;;;;24.00;15.40;;;;;;;10.22;95.98;102308.87;185875;1234;44819;-85
2023/02/12 10:42:46;;;;;;;32.50;16.80;;;;;;;10.27;96.85;102307.77;185822;1234;43959;-84
2023/02/12 10:46:48;;;;;;;28.30;14.60;;;;;;;10.37;96.42;102308.15;186064;1235;43982;-85
2023/02/12 10:51:08;;;;;;;22.10;9.90;;;;;;;10.40;95.61;102311.23;185830;1234;57950;-84
2023/02/12 10:55:23;;;;;;;27.70;13.30;;;;;;;10.36;94.31;102315.68;186102;1234;44058;-85
2023/02/12 10:59:25;;;;;;;18.90;10.30;;;;;;;10.24;92.66;102311.44;185835;1234;44030;-85
2023/02/12 11:03:33;;;;;;;17.30;10.70;;;;;;;10.09;91.49;102310.39;185790;1234;44028;-84
2023/02/12 11:07:47;;;;;;;12.00;8.60;;;;;;;9.89;92.00;102303.33;186033;1234;43710;-85
2023/02/12 11:11:49;;;;;;;19.60;9.20;;;;;;;9.88;92.94;102304.29;185787;1239;59498;-85
2023/02/12 11:15:52;;;;;;;21.70;10.90;;;;;;;9.91;95.23;102297.73;185793;1234;43953;-85
2023/02/12 11:20:52;;;;;;;126.20;66.50;;;;;;;10.01;94.74;102294.08;185831;1234;43750;-85
2023/02/12 11:25:07;;;;;;;183.40;83.90;;;;;;;10.17;94.84;102294.77;184759;1244;43908;-84
2023/02/12 11:29:23;;;;;;;34.20;17.20;;;;;;;10.22;92.80;102293.27;184739;1244;43714;-84
2023/02/12 11:33:33;;;;;;;27.70;7.40;;;;;;;10.16;90.07;102290.54;184693;1243;57404;-84
2023/02/12 11:37:41;;;;;;;15.60;5.50;;;;;;;10.05;89.24;102291.62;184709;1243;44015;-85
2023/02/12 11:41:43;;;;;;;15.10;6.90;;;;;;;9.98;90.57;102299.41;184803;1244;43885;-84
2023/02/12 11:45:48;;;;;;;13.30;7.60;;;;;;;9.91;90.79;102298.27;184824;1243;43903;-85
2023/02/12 11:50:01;;;;;;;20.70;10.20;;;;;;;9.86;92.85;102294.45;184558;1245;43817;-85
2023/02/12 11:54:05;;;;;;;12.70;8.10;;;;;;;9.92;94.04;102293.98;184785;1247;59128;-85
2023/02/12 11:58:21;;;;;;;15.00;8.70;;;;;;;9.94;92.83;102292.46;184631;1234;43705;-85
2023/02/12 12:02:38;;;;;;;20.70;10.60;;;;;;;10.04;90.49;102285.98;185847;1238;44035;-86
2023/02/12 12:06:47;;;;;;;18.10;8.50;;;;;;;10.11;91.52;102286.88;185898;1234;43992;-86
2023/02/12 12:11:08;;;;;;;16.10;7.00;;;;;;;10.16;88.50;102288.59;185899;1234;43689;-86
2023/02/12 12:19:54;;;;;;;17.20;9.60;;;;;;;10.35;87.69;102292.69;185824;1235;43816;-85
2023/02/12 12:24:14;;;;;;;16.30;5.50;;;;;;;10.43;87.32;102289.13;185914;1234;43797;-86
2023/02/12 12:28:44;;;;;;;14.20;5.60;;;;;;;10.32;82.08;102284.31;185931;1234;44072;-87
2023/02/12 12:32:51;;;;;;;22.10;9.40;;;;;;;10.34;85.10;102276.71;185925;1234;43773;-87
2023/02/12 12:37:27;;;;;;;21.10;8.40;;;;;;;10.33;83.46;102273.25;185847;1234;59669;-87
2023/02/12 12:41:48;;;;;;;17.50;7.80;;;;;;;10.33;83.61;102270.55;186052;1234;43728;-87
2023/02/12 12:46:14;;;;;;;20.10;9.70;;;;;;;10.22;87.40;102271.11;186132;1234;44087;-88
2023/02/12 12:50:42;;;;;;;13.60;6.50;;;;;;;10.22;86.18;102266.67;186181;1233;43932;-89
2023/02/12 12:54:56;;;;;;;18.00;6.70;;;;;;;10.17;86.62;102261.08;186264;1234;43910;-89
2023/02/12 12:59:20;;;;;;;14.50;4.40;;;;;;;10.15;86.26;102252.47;186279;1234;60499;-89
2023/02/12 13:04:16;;;;;;;11.10;6.90;;;;;;;10.15;80.17;102245.01;186288;1233;43946;-89
2023/02/12 13:08:46;;;;;;;16.20;6.20;;;;;;;10.32;82.95;102248.84;184993;1242;43818;-89
2023/02/12 13:12:59;;;;;;;15.30;7.50;;;;;;;10.41;84.39;102246.10;185020;1242;43842;-90
2023/02/12 13:17:28;;;;;;;29.30;12.30;;;;;;;10.51;85.42;102247.90;185095;1242;46075;-89
2023/02/12 13:21:40;;;;;;;20.60;8.30;;;;;;;10.57;84.92;102247.95;184817;1242;59276;-87
2023/02/12 13:26:07;;;;;;;14.90;10.60;;;;;;;10.52;84.56;102253.19;184945;1244;43788;-90
2023/02/12 13:30:21;;;;;;;134.90;65.20;;;;;;;10.43;84.06;102258.61;185003;1242;44322;-87
2023/02/12 13:34:27;;;;;;;119.40;57.70;;;;;;;10.41;84.61;102256.91;185073;1242;44103;-88
2023/02/12 13:38:34;;;;;;;38.90;16.80;;;;;;;10.28;85.48;102257.16;184733;1242;43776;-89
2023/02/12 13:42:49;;;;;;;37.50;15.80;;;;;;;10.13;85.95;102258.73;185755;1233;59453;-87
2023/02/12 13:46:59;;;;;;;21.90;10.80;;;;;;;10.01;87.38;102261.11;186199;1233;43756;-87
2023/02/12 13:51:19;;;;;;;24.10;12.70;;;;;;;9.87;87.90;102260.03;186277;1235;43795;-88
2023/02/12 13:55:30;;;;;;;20.00;11.40;;;;;;;9.85;88.05;102256.36;186406;1233;43918;-88
2023/02/12 13:59:31;;;;;;;23.90;11.40;;;;;;;9.85;88.21;102256.91;186232;1235;43705;-87
2023/02/12 14:03:35;;;;;;;24.10;12.60;;;;;;;9.80;88.93;102260.52;186350;1233;57920;-88
2023/02/12 14:07:52;;;;;;;22.30;11.10;;;;;;;9.91;89.88;102260.91;186058;1234;43707;-87
2023/02/12 14:11:55;;;;;;;20.60;8.80;;;;;;;9.89;88.96;102260.81;185940;1234;43763;-86
2023/02/12 14:15:57;;;;;;;14.50;7.00;;;;;;;9.79;88.75;102263.56;185828;1237;43953;-87
2023/02/12 14:20:26;;;;;;;54.40;21.70;;;;;;;9.61;89.38;102266.55;186024;1234;43750;-88
2023/02/12 14:24:34;;;;;;;73.00;29.10;;;;;;;9.47;90.44;102265.02;186040;1234;58487;-85
2023/02/12 14:29:05;;;;;;;28.50;16.40;;;;;;;9.38;90.00;102265.06;186128;1234;43797;-85
2023/02/12 14:33:07;;;;;;;16.50;10.80;;;;;;;9.35;92.11;102263.27;186187;1234;43903;-85
2023/02/12 14:37:17;;;;;;;21.20;11.00;;;;;;;9.30;92.66;102259.08;186382;1237;43751;-85
2023/02/12 14:41:36;;;;;;;23.70;10.90;;;;;;;9.25;92.09;102263.33;186058;1233;44000;-85
2023/02/12 14:45:38;;;;;;;17.40;9.30;;;;;;;9.17;93.51;102271.15;186143;1234;58499;-86
2023/02/12 14:49:48;;;;;;;20.60;11.20;;;;;;;9.12;94.47;102276.30;185928;1234;44116;-86
2023/02/12 14:53:53;;;;;;;25.00;11.70;;;;;;;9.12;94.58;102280.05;186291;1233;44058;-87
2023/02/12 14:57:59;;;;;;;17.20;11.40;;;;;;;9.10;94.27;102284.89;186078;1233;43618;-86
2023/02/12 15:02:03;;;;;;;28.40;12.30;;;;;;;9.06;94.74;102287.39;186002;1233;43759;-86
2023/02/12 15:06:19;;;;;;;21.10;10.90;;;;;;;8.95;95.57;102285.34;185935;1234;58401;-86
2023/02/12 15:10:23;;;;;;;22.40;13.40;;;;;;;8.83;96.14;102284.44;185940;1234;44574;-86
2023/02/12 15:14:33;;;;;;;20.10;12.70;;;;;;;8.73;96.09;102285.76;186322;1234;44187;-86
2023/02/12 15:18:53;;;;;;;15.00;11.10;;;;;;;8.72;95.86;102285.45;186184;1234;43660;-87
2023/02/12 15:22:55;;;;;;;23.80;13.60;;;;;;;8.71;94.70;102286.52;185985;1234;44028;-87
2023/02/12 15:26:59;;;;;;;23.40;14.20;;;;;;;8.67;94.22;102288.65;186208;1234;59414;-90
2023/02/12 15:31:04;;;;;;;25.10;12.50;;;;;;;8.61;94.31;102292.42;186104;1234;43782;-90
2023/02/12 15:35:23;;;;;;;16.50;11.30;;;;;;;8.72;93.10;102294.10;186023;1234;43923;-87
2023/02/12 15:39:27;;;;;;;15.60;11.40;;;;;;;8.81;91.78;102290.91;185949;1233;43819;-86
2023/02/12 15:43:33;;;;;;;15.40;10.90;;;;;;;8.87;90.54;102281.98;185766;1233;187036;-87
2023/02/12 15:47:35;;;;;;;27.50;12.90;;;;;;;8.84;88.23;102283.69;186016;1233;58339;-87
2023/02/12 15:51:40;;;;;;;10.80;7.40;;;;;;;8.78;86.46;102287.34;186247;1234;44024;-88
2023/02/12 15:55:46;;;;;;;15.30;10.00;;;;;;;8.74;85.74;102288.90;186139;1234;43783;-89
2023/02/12 15:59:53;;;;;;;16.30;9.70;;;;;;;8.74;86.41;102292.10;186065;1234;43830;-87
2023/02/12 16:04:06;;;;;;;24.60;11.40;;;;;;;8.74;87.02;102293.84;185969;1233;43644;-87
2023/02/12 16:08:14;;;;;;;22.80;11.50;;;;;;;8.72;87.75;102300.83;186173;1234;59417;-88
2023/02/12 16:12:20;;;;;;;21.60;11.90;;;;;;;8.70;88.49;102300.90;186024;1233;43883;-87
2023/02/12 16:16:28;;;;;;;21.40;10.90;;;;;;;8.65;88.90;102306.95;186210;1234;43756;-88
2023/02/12 16:20:31;;;;;;;18.20;10.80;;;;;;;8.32;90.64;102308.95;186028;1234;43769;-87
2023/02/12 16:24:37;;;;;;;19.30;13.10;;;;;;;8.11;92.08;102308.02;186058;1233;43795;-87
2023/02/12 16:28:39;;;;;;;21.70;13.70;;;;;;;8.07;92.91;102310.98;185968;1237;59318;-87
2023/02/12 16:32:42;;;;;;;20.00;12.50;;;;;;;8.02;93.92;102314.89;185958;1234;43973;-87
2023/02/12 16:36:47;;;;;;;29.60;14.70;;;;;;;8.08;94.08;102317.66;186040;1234;43976;-87
2023/02/12 16:41:17;;;;;;;21.70;13.90;;;;;;;8.18;93.97;102320.46;186200;1234;43827;-87
2023/02/12 16:45:30;;;;;;;22.00;12.40;;;;;;;8.28;93.82;102321.66;186276;1234;43849;-87
2023/02/12 16:49:32;;;;;;;34.30;15.70;;;;;;;8.40;93.32;102321.37;186365;1233;58014;-88
2023/02/12 16:53:42;;;;;;;28.40;16.10;;;;;;;8.47;93.16;102319.34;185882;1233;43980;-88
2023/02/12 16:57:44;;;;;;;18.50;11.30;;;;;;;8.53;92.79;102321.43;186016;1236;43771;-88
2023/02/12 17:02:08;;;;;;;25.20;13.80;;;;;;;8.59;92.66;102322.75;186094;1234;44862;-89
2023/02/12 17:06:10;;;;;;;24.10;13.00;;;;;;;8.62;92.33;102323.70;186090;1234;43834;-89
2023/02/12 17:10:13;;;;;;;25.80;13.80;;;;;;;8.62;92.37;102322.82;186063;1237;57828;-89
2023/02/12 17:14:18;;;;;;;16.40;12.40;;;;;;;8.64;92.52;102324.86;186118;1234;43915;-88
2023/02/12 17:18:20;;;;;;;24.20;15.20;;;;;;;8.63;92.49;102325.43;185978;1234;43850;-88
2023/02/12 17:22:25;;;;;;;24.60;14.90;;;;;;;8.55;92.54;102330.20;186188;1234;43874;-88
2023/02/12 17:26:27;;;;;;;35.10;19.10;;;;;;;8.50;92.82;102332.87;186085;1233;43787;-88
2023/02/12 17:30:31;;;;;;;27.10;16.50;;;;;;;8.49;92.89;102335.16;186067;1234;58192;-88
2023/02/12 17:34:33;;;;;;;25.70;15.80;;;;;;;8.36;93.35;102341.69;186062;1234;43776;-87
2023/02/12 17:38:50;;;;;;;24.60;15.80;;;;;;;8.16;94.79;102340.17;186331;1234;43704;-88
2023/02/12 17:42:52;;;;;;;29.90;14.00;;;;;;;8.04;96.01;102341.13;186031;1234;43800;-88
2023/02/12 17:46:53;;;;;;;26.30;16.10;;;;;;;7.92;96.89;102337.52;185993;1234;43693;-87
2023/02/12 17:50:56;;;;;;;26.30;15.80;;;;;;;7.93;96.90;102337.65;186000;1235;59437;-87
2023/02/12 17:54:58;;;;;;;20.70;14.20;;;;;;;7.99;96.60;102340.61;186124;1236;44110;-87
2023/02/12 17:59:01;;;;;;;25.90;16.90;;;;;;;8.06;96.21;102341.42;186009;1234;43814;-87
2023/02/12 18:03:02;;;;;;;23.90;14.70;;;;;;;8.11;95.74;102339.63;185976;1234;43881;-87
2023/02/12 18:07:04;;;;;;;33.50;15.60;;;;;;;8.13;95.48;102339.02;186170;1234;43732;-87
2023/02/12 18:11:13;;;;;;;24.90;15.60;;;;;;;8.14;95.31;102339.36;186159;1234;58103;-87
2023/02/12 18:15:15;;;;;;;35.70;18.60;;;;;;;8.11;95.36;102342.11;186164;1234;43777;-87
2023/02/12 18:19:17;;;;;;;28.10;17.90;;;;;;;8.10;95.61;102346.58;186091;1234;44080;-87
2023/02/12 18:23:19;;;;;;;31.50;17.60;;;;;;;8.11;95.86;102344.41;185985;1235;43891;-87
2023/02/12 18:27:21;;;;;;;29.60;17.00;;;;;;;8.08;95.98;102341.90;186324;1234;44025;-87
2023/02/12 18:31:23;;;;;;;24.50;15.70;;;;;;;8.01;96.91;102342.84;186018;1233;58127;-88
2023/02/12 18:35:26;;;;;;;27.40;15.30;;;;;;;8.06;97.45;102335.60;186018;1234;44554;-88
2023/02/12 18:39:28;;;;;;;27.30;17.60;;;;;;;8.10;97.36;102333.52;186151;1234;43808;-87
2023/02/12 18:43:32;;;;;;;28.00;16.60;;;;;;;8.11;97.46;102338.39;186077;1234;44802;-88
2023/02/12 18:47:34;;;;;;;30.30;16.80;;;;;;;8.13;97.35;102337.61;186120;1233;43805;-88
2023/02/12 18:51:38;;;;;;;29.80;16.70;;;;;;;8.14;96.93;102340.39;186061;1234;58937;-87
2023/02/12 18:55:40;;;;;;;29.00;16.80;;;;;;;8.13;97.05;102341.50;186157;1234;43800;-87
2023/02/12 18:59:42;;;;;;;24.30;13.70;;;;;;;8.07;97.59;102342.61;186012;1237;43671;-87
2023/02/12 19:03:45;;;;;;;22.10;14.20;;;;;;;8.01;98.71;102347.80;186008;1234;44272;-88
2023/02/12 19:07:47;;;;;;;22.70;14.00;;;;;;;7.94;99.53;102345.23;186171;1234;43810;-89
2023/02/12 19:11:50;;;;;;;25.60;15.40;;;;;;;7.89;100.00;102344.69;186112;1233;58111;-88
2023/02/12 19:15:52;;;;;;;24.20;14.50;;;;;;;7.80;100.00;102342.03;186229;1234;44025;-88
2023/02/12 19:19:54;;;;;;;23.60;12.10;;;;;;;7.68;100.00;102348.84;186295;1233;44157;-88
2023/02/12 19:23:59;;;;;;;23.80;13.20;;;;;;;7.55;100.00;102348.24;186247;1234;43698;-88
2023/02/12 19:28:11;;;;;;;21.80;9.80;;;;;;;7.45;100.00;102348.42;185931;1234;43758;-88
2023/02/12 19:32:14;;;;;;;29.10;13.30;;;;;;;7.37;100.00;102349.93;186017;1234;59577;-88
2023/02/12 19:36:22;;;;;;;21.20;12.20;;;;;;;7.34;100.00;102350.75;185872;1238;44238;-85